sensor_id;sensor_type;location;lat;lon;timestamp;P1;durP1;ratioP1;P2;durP2;ratioP2
21239;SDS011;10778;48.962;9.018;2022-09-09T00:01:28;3.13;;;1.27;;
21239;SDS011;10778;48.962;9.018;2022-09-09T00:07:03;2.45;;;1.33;;
21239;SDS011;10778;48.962;9.018;2022-09-09T00:09:53;4.95;;;1.30;;
21239;SDS011;10778;48.962;9.018;2022-09-09T00:12:18;3.03;;;1.30;;
21239;SDS011;10778;48.962;9.018;2022-09-09T00:22:35;5.28;;;1.58;;
21239;SDS011;10778;48.962;9.018;2022-09-09T00:25:14;3.92;;;1.42;;
21239;SDS011;10778;48.962;9.018;2022-09-09T00:27:49;3.25;;;1.58;;
21239;SDS011;10778;48.962;9.018;2022-09-09T00:30:17;3.28;;;1.40;;
21239;SDS011;10778;48.962;9.018;2022-09-09T00:32:49;6.38;;;1.80;;
21239;SDS011;10778;48.962;9.018;2022-09-09T00:35:29;3.53;;;1.63;;
21239;SDS011;10778;48.962;9.018;2022-09-09T00:37:58;4.28;;;1.77;;
21239;SDS011;10778;48.962;9.018;2022-09-09T00:40:33;2.75;;;1.38;;
21239;SDS011;10778;48.962;9.018;2022-09-09T00:48:38;2.75;;;1.60;;
21239;SDS011;10778;48.962;9.018;2022-09-09T00:51:12;4.00;;;1.50;;
21239;SDS011;10778;48.962;9.018;2022-09-09T00:56:36;4.22;;;1.70;;
21239;SDS011;10778;48.962;9.018;2022-09-09T00:59:12;3.38;;;1.73;;
21239;SDS011;10778;48.962;9.018;2022-09-09T01:01:57;3.63;;;1.60;;
21239;SDS011;10778;48.962;9.018;2022-09-09T01:04:27;5.53;;;1.70;;
21239;SDS011;10778;48.962;9.018;2022-09-09T01:07:03;6.25;;;1.75;;
21239;SDS011;10778;48.962;9.018;2022-09-09T01:09:44;3.25;;;1.52;;
21239;SDS011;10778;48.962;9.018;2022-09-09T01:12:25;5.43;;;1.80;;
21239;SDS011;10778;48.962;9.018;2022-09-09T01:15:01;3.20;;;1.67;;
21239;SDS011;10778;48.962;9.018;2022-09-09T01:17:46;3.33;;;1.40;;
21239;SDS011;10778;48.962;9.018;2022-09-09T01:20:23;3.20;;;1.50;;
21239;SDS011;10778;48.962;9.018;2022-09-09T01:23:03;5.57;;;1.63;;
21239;SDS011;10778;48.962;9.018;2022-09-09T01:28:35;3.60;;;1.48;;
21239;SDS011;10778;48.962;9.018;2022-09-09T01:31:08;2.95;;;1.42;;
21239;SDS011;10778;48.962;9.018;2022-09-09T01:33:42;3.92;;;1.45;;
21239;SDS011;10778;48.962;9.018;2022-09-09T01:39:17;4.60;;;1.50;;
21239;SDS011;10778;48.962;9.018;2022-09-09T01:41:44;5.13;;;1.60;;
21239;SDS011;10778;48.962;9.018;2022-09-09T01:44:13;3.47;;;1.70;;
21239;SDS011;10778;48.962;9.018;2022-09-09T01:46:43;3.35;;;1.60;;
21239;SDS011;10778;48.962;9.018;2022-09-09T01:49:18;3.40;;;1.60;;
21239;SDS011;10778;48.962;9.018;2022-09-09T01:51:46;3.00;;;1.65;;
21239;SDS011;10778;48.962;9.018;2022-09-09T01:54:17;3.85;;;1.63;;
21239;SDS011;10778;48.962;9.018;2022-09-09T02:10:10;4.80;;;1.92;;
21239;SDS011;10778;48.962;9.018;2022-09-09T02:12:40;3.85;;;2.00;;
21239;SDS011;10778;48.962;9.018;2022-09-09T02:15:21;7.05;;;2.38;;
21239;SDS011;10778;48.962;9.018;2022-09-09T02:17:55;6.53;;;2.20;;
21239;SDS011;10778;48.962;9.018;2022-09-09T02:20:24;5.30;;;2.53;;
21239;SDS011;10778;48.962;9.018;2022-09-09T02:22:57;7.85;;;2.67;;
21239;SDS011;10778;48.962;9.018;2022-09-09T02:25:26;5.18;;;2.33;;
21239;SDS011;10778;48.962;9.018;2022-09-09T02:28:00;5.38;;;2.40;;
21239;SDS011;10778;48.962;9.018;2022-09-09T02:30:29;6.00;;;2.20;;
21239;SDS011;10778;48.962;9.018;2022-09-09T02:32:58;5.15;;;2.13;;
21239;SDS011;10778;48.962;9.018;2022-09-09T02:35:42;4.55;;;2.22;;
21239;SDS011;10778;48.962;9.018;2022-09-09T02:38:12;3.35;;;2.00;;
21239;SDS011;10778;48.962;9.018;2022-09-09T02:40:48;5.45;;;2.10;;
21239;SDS011;10778;48.962;9.018;2022-09-09T02:43:15;4.88;;;2.40;;
21239;SDS011;10778;48.962;9.018;2022-09-09T02:45:51;4.05;;;2.33;;
21239;SDS011;10778;48.962;9.018;2022-09-09T02:48:30;5.35;;;2.05;;
21239;SDS011;10778;48.962;9.018;2022-09-09T02:56:31;4.05;;;1.88;;
21239;SDS011;10778;48.962;9.018;2022-09-09T02:59:04;3.50;;;1.80;;
21239;SDS011;10778;48.962;9.018;2022-09-09T03:01:31;5.70;;;1.95;;
21239;SDS011;10778;48.962;9.018;2022-09-09T03:03:59;5.38;;;2.00;;
21239;SDS011;10778;48.962;9.018;2022-09-09T03:06:25;5.82;;;2.10;;
21239;SDS011;10778;48.962;9.018;2022-09-09T03:09:01;5.30;;;2.05;;
21239;SDS011;10778;48.962;9.018;2022-09-09T03:11:28;3.65;;;1.98;;
21239;SDS011;10778;48.962;9.018;2022-09-09T03:13:54;3.42;;;2.05;;
21239;SDS011;10778;48.962;9.018;2022-09-09T03:16:22;7.05;;;2.08;;
21239;SDS011;10778;48.962;9.018;2022-09-09T03:18:51;4.53;;;2.28;;
21239;SDS011;10778;48.962;9.018;2022-09-09T03:21:19;5.10;;;2.15;;
21239;SDS011;10778;48.962;9.018;2022-09-09T03:23:45;3.72;;;1.90;;
21239;SDS011;10778;48.962;9.018;2022-09-09T03:26:11;5.20;;;2.10;;
21239;SDS011;10778;48.962;9.018;2022-09-09T03:28:44;4.10;;;2.15;;
21239;SDS011;10778;48.962;9.018;2022-09-09T03:31:11;3.72;;;1.85;;
21239;SDS011;10778;48.962;9.018;2022-09-09T03:33:40;3.67;;;1.88;;
21239;SDS011;10778;48.962;9.018;2022-09-09T03:36:08;5.90;;;1.88;;
21239;SDS011;10778;48.962;9.018;2022-09-09T03:38:34;5.82;;;1.85;;
21239;SDS011;10778;48.962;9.018;2022-09-09T03:41:00;3.80;;;1.90;;
21239;SDS011;10778;48.962;9.018;2022-09-09T03:43:28;2.80;;;1.70;;
21239;SDS011;10778;48.962;9.018;2022-09-09T03:45:55;4.47;;;2.05;;
21239;SDS011;10778;48.962;9.018;2022-09-09T03:48:24;3.78;;;1.85;;
21239;SDS011;10778;48.962;9.018;2022-09-09T03:50:52;3.63;;;1.90;;
21239;SDS011;10778;48.962;9.018;2022-09-09T03:53:20;3.70;;;1.75;;
21239;SDS011;10778;48.962;9.018;2022-09-09T03:55:52;5.07;;;1.98;;
21239;SDS011;10778;48.962;9.018;2022-09-09T03:58:22;3.83;;;1.83;;
21239;SDS011;10778;48.962;9.018;2022-09-09T04:00:57;3.30;;;2.03;;
21239;SDS011;10778;48.962;9.018;2022-09-09T04:03:28;4.40;;;2.10;;
21239;SDS011;10778;48.962;9.018;2022-09-09T04:05:56;4.75;;;2.03;;
21239;SDS011;10778;48.962;9.018;2022-09-09T04:08:25;3.63;;;1.85;;
21239;SDS011;10778;48.962;9.018;2022-09-09T04:10:53;3.67;;;1.75;;
21239;SDS011;10778;48.962;9.018;2022-09-09T04:13:24;4.07;;;1.90;;
21239;SDS011;10778;48.962;9.018;2022-09-09T04:15:51;4.90;;;2.08;;
21239;SDS011;10778;48.962;9.018;2022-09-09T04:18:19;2.67;;;1.90;;
21239;SDS011;10778;48.962;9.018;2022-09-09T04:20:49;4.05;;;1.98;;
21239;SDS011;10778;48.962;9.018;2022-09-09T04:23:19;7.13;;;2.08;;
21239;SDS011;10778;48.962;9.018;2022-09-09T04:25:47;5.40;;;2.05;;
21239;SDS011;10778;48.962;9.018;2022-09-09T04:28:14;5.13;;;2.08;;
21239;SDS011;10778;48.962;9.018;2022-09-09T04:30:43;5.95;;;2.45;;
21239;SDS011;10778;48.962;9.018;2022-09-09T04:33:10;4.53;;;2.00;;
21239;SDS011;10778;48.962;9.018;2022-09-09T04:35:37;3.90;;;1.90;;
21239;SDS011;10778;48.962;9.018;2022-09-09T04:38:04;5.00;;;1.98;;
21239;SDS011;10778;48.962;9.018;2022-09-09T04:40:33;4.20;;;1.77;;
21239;SDS011;10778;48.962;9.018;2022-09-09T04:43:01;5.60;;;1.85;;
21239;SDS011;10778;48.962;9.018;2022-09-09T04:45:31;4.32;;;1.65;;
21239;SDS011;10778;48.962;9.018;2022-09-09T04:47:58;3.53;;;1.50;;
21239;SDS011;10778;48.962;9.018;2022-09-09T04:50:24;4.18;;;1.75;;
21239;SDS011;10778;48.962;9.018;2022-09-09T04:53:01;4.85;;;1.90;;
21239;SDS011;10778;48.962;9.018;2022-09-09T04:55:28;4.32;;;1.83;;
21239;SDS011;10778;48.962;9.018;2022-09-09T04:57:55;7.80;;;1.95;;
21239;SDS011;10778;48.962;9.018;2022-09-09T05:00:24;4.40;;;1.88;;
21239;SDS011;10778;48.962;9.018;2022-09-09T05:02:51;2.67;;;1.67;;
21239;SDS011;10778;48.962;9.018;2022-09-09T05:05:17;4.60;;;1.90;;
21239;SDS011;10778;48.962;9.018;2022-09-09T05:07:46;2.97;;;1.70;;
21239;SDS011;10778;48.962;9.018;2022-09-09T05:10:14;4.63;;;1.85;;
21239;SDS011;10778;48.962;9.018;2022-09-09T05:12:51;2.67;;;1.50;;
21239;SDS011;10778;48.962;9.018;2022-09-09T05:15:18;4.68;;;1.70;;
21239;SDS011;10778;48.962;9.018;2022-09-09T05:17:46;4.78;;;2.10;;
21239;SDS011;10778;48.962;9.018;2022-09-09T05:20:14;5.30;;;1.90;;
21239;SDS011;10778;48.962;9.018;2022-09-09T05:22:40;3.13;;;1.75;;
21239;SDS011;10778;48.962;9.018;2022-09-09T05:25:06;4.63;;;1.35;;
21239;SDS011;10778;48.962;9.018;2022-09-09T05:27:34;3.13;;;1.25;;
21239;SDS011;10778;48.962;9.018;2022-09-09T05:30:00;2.33;;;1.50;;
21239;SDS011;10778;48.962;9.018;2022-09-09T05:32:27;4.75;;;2.60;;
21239;SDS011;10778;48.962;9.018;2022-09-09T05:34:58;4.68;;;2.67;;
21239;SDS011;10778;48.962;9.018;2022-09-09T05:37:24;6.53;;;2.85;;
21239;SDS011;10778;48.962;9.018;2022-09-09T05:39:51;4.18;;;2.30;;
21239;SDS011;10778;48.962;9.018;2022-09-09T05:42:17;3.45;;;2.10;;
21239;SDS011;10778;48.962;9.018;2022-09-09T05:44:43;3.22;;;2.10;;
21239;SDS011;10778;48.962;9.018;2022-09-09T05:47:11;3.80;;;2.03;;
21239;SDS011;10778;48.962;9.018;2022-09-09T05:49:37;3.30;;;2.08;;
21239;SDS011;10778;48.962;9.018;2022-09-09T05:52:03;3.35;;;2.10;;
21239;SDS011;10778;48.962;9.018;2022-09-09T05:54:30;3.55;;;2.00;;
21239;SDS011;10778;48.962;9.018;2022-09-09T05:56:56;3.47;;;2.00;;
21239;SDS011;10778;48.962;9.018;2022-09-09T05:59:22;3.15;;;1.70;;
21239;SDS011;10778;48.962;9.018;2022-09-09T06:01:51;3.97;;;1.75;;
21239;SDS011;10778;48.962;9.018;2022-09-09T06:04:23;4.03;;;1.50;;
21239;SDS011;10778;48.962;9.018;2022-09-09T06:06:50;3.72;;;1.40;;
21239;SDS011;10778;48.962;9.018;2022-09-09T06:09:18;4.28;;;1.50;;
21239;SDS011;10778;48.962;9.018;2022-09-09T06:11:44;2.03;;;1.20;;
21239;SDS011;10778;48.962;9.018;2022-09-09T06:14:13;2.20;;;1.40;;
21239;SDS011;10778;48.962;9.018;2022-09-09T06:16:39;5.40;;;1.50;;
21239;SDS011;10778;48.962;9.018;2022-09-09T06:19:14;3.20;;;1.40;;
21239;SDS011;10778;48.962;9.018;2022-09-09T06:21:41;3.63;;;1.42;;
21239;SDS011;10778;48.962;9.018;2022-09-09T06:24:08;4.60;;;1.50;;
21239;SDS011;10778;48.962;9.018;2022-09-09T06:26:36;3.13;;;1.40;;
21239;SDS011;10778;48.962;9.018;2022-09-09T06:29:09;2.28;;;1.35;;
21239;SDS011;10778;48.962;9.018;2022-09-09T06:31:35;2.22;;;1.20;;
21239;SDS011;10778;48.962;9.018;2022-09-09T06:34:08;2.53;;;1.40;;
21239;SDS011;10778;48.962;9.018;2022-09-09T06:36:38;3.42;;;1.25;;
21239;SDS011;10778;48.962;9.018;2022-09-09T06:39:05;3.10;;;1.50;;
21239;SDS011;10778;48.962;9.018;2022-09-09T06:41:33;3.58;;;1.27;;
21239;SDS011;10778;48.962;9.018;2022-09-09T06:44:02;2.40;;;1.10;;
21239;SDS011;10778;48.962;9.018;2022-09-09T06:46:34;5.13;;;1.40;;
21239;SDS011;10778;48.962;9.018;2022-09-09T06:49:01;4.78;;;1.30;;
21239;SDS011;10778;48.962;9.018;2022-09-09T06:51:29;5.22;;;1.40;;
21239;SDS011;10778;48.962;9.018;2022-09-09T06:54:00;4.50;;;1.38;;
21239;SDS011;10778;48.962;9.018;2022-09-09T06:56:32;4.13;;;1.30;;
21239;SDS011;10778;48.962;9.018;2022-09-09T06:59:04;3.78;;;1.50;;
21239;SDS011;10778;48.962;9.018;2022-09-09T07:01:33;3.42;;;1.30;;
21239;SDS011;10778;48.962;9.018;2022-09-09T07:04:04;2.90;;;1.40;;
21239;SDS011;10778;48.962;9.018;2022-09-09T07:06:35;4.05;;;1.15;;
21239;SDS011;10778;48.962;9.018;2022-09-09T07:09:10;3.97;;;1.42;;
21239;SDS011;10778;48.962;9.018;2022-09-09T07:11:41;2.83;;;1.23;;
21239;SDS011;10778;48.962;9.018;2022-09-09T07:14:10;5.07;;;1.30;;
21239;SDS011;10778;48.962;9.018;2022-09-09T07:16:42;3.17;;;1.30;;
21239;SDS011;10778;48.962;9.018;2022-09-09T07:19:10;3.10;;;1.35;;
21239;SDS011;10778;48.962;9.018;2022-09-09T07:21:38;2.70;;;1.17;;
21239;SDS011;10778;48.962;9.018;2022-09-09T07:24:10;3.75;;;1.20;;
21239;SDS011;10778;48.962;9.018;2022-09-09T07:26:39;3.15;;;0.93;;
21239;SDS011;10778;48.962;9.018;2022-09-09T07:29:06;2.55;;;1.00;;
21239;SDS011;10778;48.962;9.018;2022-09-09T07:31:34;2.72;;;1.00;;
21239;SDS011;10778;48.962;9.018;2022-09-09T07:34:03;2.22;;;0.88;;
21239;SDS011;10778;48.962;9.018;2022-09-09T07:36:31;3.15;;;1.00;;
21239;SDS011;10778;48.962;9.018;2022-09-09T07:39:01;3.58;;;1.00;;
21239;SDS011;10778;48.962;9.018;2022-09-09T07:41:39;4.82;;;1.10;;
21239;SDS011;10778;48.962;9.018;2022-09-09T07:44:13;4.43;;;1.00;;
21239;SDS011;10778;48.962;9.018;2022-09-09T07:46:46;3.15;;;0.90;;
21239;SDS011;10778;48.962;9.018;2022-09-09T07:49:17;2.83;;;1.08;;
21239;SDS011;10778;48.962;9.018;2022-09-09T07:51:45;4.00;;;1.20;;
21239;SDS011;10778;48.962;9.018;2022-09-09T07:54:14;4.47;;;1.00;;
21239;SDS011;10778;48.962;9.018;2022-09-09T07:56:44;4.28;;;0.95;;
21239;SDS011;10778;48.962;9.018;2022-09-09T07:59:11;2.70;;;0.98;;
21239;SDS011;10778;48.962;9.018;2022-09-09T08:01:44;3.17;;;1.00;;
21239;SDS011;10778;48.962;9.018;2022-09-09T08:04:16;3.90;;;1.15;;
21239;SDS011;10778;48.962;9.018;2022-09-09T08:06:45;3.05;;;1.08;;
21239;SDS011;10778;48.962;9.018;2022-09-09T08:09:15;4.63;;;1.17;;
21239;SDS011;10778;48.962;9.018;2022-09-09T08:11:42;3.05;;;1.10;;
21239;SDS011;10778;48.962;9.018;2022-09-09T08:14:09;6.70;;;1.10;;
21239;SDS011;10778;48.962;9.018;2022-09-09T08:16:37;4.28;;;1.17;;
21239;SDS011;10778;48.962;9.018;2022-09-09T08:19:06;4.30;;;1.08;;
21239;SDS011;10778;48.962;9.018;2022-09-09T08:21:34;3.83;;;1.10;;
21239;SDS011;10778;48.962;9.018;2022-09-09T08:24:03;3.83;;;1.10;;
21239;SDS011;10778;48.962;9.018;2022-09-09T08:26:35;4.28;;;1.25;;
21239;SDS011;10778;48.962;9.018;2022-09-09T08:29:08;3.58;;;0.90;;
21239;SDS011;10778;48.962;9.018;2022-09-09T08:31:38;3.90;;;0.90;;
21239;SDS011;10778;48.962;9.018;2022-09-09T08:34:10;2.85;;;1.00;;
21239;SDS011;10778;48.962;9.018;2022-09-09T08:36:38;3.97;;;1.10;;
21239;SDS011;10778;48.962;9.018;2022-09-09T08:39:08;3.70;;;1.08;;
21239;SDS011;10778;48.962;9.018;2022-09-09T08:50:23;4.45;;;1.17;;
21239;SDS011;10778;48.962;9.018;2022-09-09T08:53:05;5.13;;;1.27;;
21239;SDS011;10778;48.962;9.018;2022-09-09T08:55:52;4.70;;;1.00;;
21239;SDS011;10778;48.962;9.018;2022-09-09T08:58:31;3.33;;;1.10;;
21239;SDS011;10778;48.962;9.018;2022-09-09T09:06:50;3.10;;;0.90;;
21239;SDS011;10778;48.962;9.018;2022-09-09T09:12:29;5.32;;;1.20;;
21239;SDS011;10778;48.962;9.018;2022-09-09T09:15:19;5.20;;;1.30;;
21239;SDS011;10778;48.962;9.018;2022-09-09T09:17:49;6.05;;;1.20;;
21239;SDS011;10778;48.962;9.018;2022-09-09T09:20:17;4.63;;;1.20;;
21239;SDS011;10778;48.962;9.018;2022-09-09T09:22:49;4.38;;;1.20;;
21239;SDS011;10778;48.962;9.018;2022-09-09T09:25:20;3.67;;;1.10;;
21239;SDS011;10778;48.962;9.018;2022-09-09T09:27:51;4.70;;;1.08;;
21239;SDS011;10778;48.962;9.018;2022-09-09T09:31:10;4.53;;;1.17;;
21239;SDS011;10778;48.962;9.018;2022-09-09T09:33:27;4.13;;;1.00;;
21239;SDS011;10778;48.962;9.018;2022-09-09T09:36:01;3.40;;;1.00;;
21239;SDS011;10778;48.962;9.018;2022-09-09T09:38:28;3.70;;;0.90;;
21239;SDS011;10778;48.962;9.018;2022-09-09T09:40:58;3.92;;;1.00;;
21239;SDS011;10778;48.962;9.018;2022-09-09T09:46:22;4.28;;;1.30;;
21239;SDS011;10778;48.962;9.018;2022-09-09T09:49:00;5.07;;;1.40;;
21239;SDS011;10778;48.962;9.018;2022-09-09T09:51:32;7.05;;;1.30;;
21239;SDS011;10778;48.962;9.018;2022-09-09T09:56:39;11.27;;;1.95;;
21239;SDS011;10778;48.962;9.018;2022-09-09T09:59:19;17.02;;;2.47;;
21239;SDS011;10778;48.962;9.018;2022-09-09T10:02:14;5.38;;;1.75;;
21239;SDS011;10778;48.962;9.018;2022-09-09T10:07:33;5.90;;;1.52;;
21239;SDS011;10778;48.962;9.018;2022-09-09T10:09:59;6.68;;;1.38;;
21239;SDS011;10778;48.962;9.018;2022-09-09T10:20:42;3.85;;;0.90;;
21239;SDS011;10778;48.962;9.018;2022-09-09T10:23:35;2.83;;;1.08;;
21239;SDS011;10778;48.962;9.018;2022-09-09T10:26:51;3.40;;;0.90;;
21239;SDS011;10778;48.962;9.018;2022-09-09T10:29:01;6.00;;;1.05;;
21239;SDS011;10778;48.962;9.018;2022-09-09T10:34:18;5.15;;;1.30;;
21239;SDS011;10778;48.962;9.018;2022-09-09T10:36:47;6.80;;;1.40;;
21239;SDS011;10778;48.962;9.018;2022-09-09T10:53:02;5.40;;;1.05;;
21239;SDS011;10778;48.962;9.018;2022-09-09T10:55:40;4.47;;;0.98;;
21239;SDS011;10778;48.962;9.018;2022-09-09T10:58:14;4.88;;;1.02;;
21239;SDS011;10778;48.962;9.018;2022-09-09T11:00:46;4.15;;;1.00;;
21239;SDS011;10778;48.962;9.018;2022-09-09T11:03:23;4.25;;;1.10;;
21239;SDS011;10778;48.962;9.018;2022-09-09T11:06:04;5.82;;;1.00;;
21239;SDS011;10778;48.962;9.018;2022-09-09T11:08:34;8.18;;;1.02;;
21239;SDS011;10778;48.962;9.018;2022-09-09T11:11:05;3.85;;;0.70;;
21239;SDS011;10778;48.962;9.018;2022-09-09T11:18:49;2.88;;;0.80;;
21239;SDS011;10778;48.962;9.018;2022-09-09T11:21:28;3.70;;;0.98;;
21239;SDS011;10778;48.962;9.018;2022-09-09T11:26:54;5.07;;;1.13;;
21239;SDS011;10778;48.962;9.018;2022-09-09T11:41:07;2.22;;;0.70;;
21239;SDS011;10778;48.962;9.018;2022-09-09T11:43:42;1.50;;;0.60;;
21239;SDS011;10778;48.962;9.018;2022-09-09T11:49:27;2.58;;;0.80;;
21239;SDS011;10778;48.962;9.018;2022-09-09T11:51:54;2.85;;;0.98;;
21239;SDS011;10778;48.962;9.018;2022-09-09T11:54:30;3.38;;;1.10;;
21239;SDS011;10778;48.962;9.018;2022-09-09T11:56:58;2.22;;;0.75;;
21239;SDS011;10778;48.962;9.018;2022-09-09T11:59:28;2.58;;;0.75;;
21239;SDS011;10778;48.962;9.018;2022-09-09T12:02:00;3.42;;;0.98;;
21239;SDS011;10778;48.962;9.018;2022-09-09T12:05:05;2.42;;;0.80;;
21239;SDS011;10778;48.962;9.018;2022-09-09T12:10:20;1.70;;;0.70;;
21239;SDS011;10778;48.962;9.018;2022-09-09T12:15:48;2.33;;;0.70;;
21239;SDS011;10778;48.962;9.018;2022-09-09T12:18:24;1.65;;;0.65;;
21239;SDS011;10778;48.962;9.018;2022-09-09T12:20:53;1.20;;;0.40;;
21239;SDS011;10778;48.962;9.018;2022-09-09T12:23:48;2.67;;;0.50;;
21239;SDS011;10778;48.962;9.018;2022-09-09T12:26:28;1.48;;;0.52;;
21239;SDS011;10778;48.962;9.018;2022-09-09T12:37:16;2.42;;;0.70;;
21239;SDS011;10778;48.962;9.018;2022-09-09T12:39:56;2.33;;;0.80;;
21239;SDS011;10778;48.962;9.018;2022-09-09T12:42:29;2.17;;;0.70;;
21239;SDS011;10778;48.962;9.018;2022-09-09T12:44:59;3.13;;;0.60;;
21239;SDS011;10778;48.962;9.018;2022-09-09T12:47:36;4.47;;;0.90;;
21239;SDS011;10778;48.962;9.018;2022-09-09T12:50:19;3.92;;;0.90;;
21239;SDS011;10778;48.962;9.018;2022-09-09T12:52:48;2.97;;;0.85;;
21239;SDS011;10778;48.962;9.018;2022-09-09T12:55:18;4.15;;;0.80;;
21239;SDS011;10778;48.962;9.018;2022-09-09T12:57:47;4.47;;;0.90;;
21239;SDS011;10778;48.962;9.018;2022-09-09T13:00:19;2.70;;;0.70;;
21239;SDS011;10778;48.962;9.018;2022-09-09T13:02:53;3.35;;;0.73;;
21239;SDS011;10778;48.962;9.018;2022-09-09T13:05:25;3.90;;;0.90;;
21239;SDS011;10778;48.962;9.018;2022-09-09T13:08:06;2.22;;;0.80;;
21239;SDS011;10778;48.962;9.018;2022-09-09T13:10:36;2.38;;;0.65;;
21239;SDS011;10778;48.962;9.018;2022-09-09T13:13:15;3.35;;;0.63;;
21239;SDS011;10778;48.962;9.018;2022-09-09T13:15:49;4.85;;;0.80;;
21239;SDS011;10778;48.962;9.018;2022-09-09T13:18:18;1.90;;;0.50;;
21239;SDS011;10778;48.962;9.018;2022-09-09T13:20:48;6.15;;;0.70;;
21239;SDS011;10778;48.962;9.018;2022-09-09T13:23:15;3.80;;;0.75;;
21239;SDS011;10778;48.962;9.018;2022-09-09T13:25:55;2.67;;;0.70;;
21239;SDS011;10778;48.962;9.018;2022-09-09T13:28:24;3.00;;;0.77;;
21239;SDS011;10778;48.962;9.018;2022-09-09T13:31:02;4.35;;;0.68;;
21239;SDS011;10778;48.962;9.018;2022-09-09T13:33:31;4.00;;;0.90;;
21239;SDS011;10778;48.962;9.018;2022-09-09T13:36:06;4.05;;;0.80;;
21239;SDS011;10778;48.962;9.018;2022-09-09T13:38:38;2.17;;;0.60;;
21239;SDS011;10778;48.962;9.018;2022-09-09T13:41:22;3.65;;;0.77;;
21239;SDS011;10778;48.962;9.018;2022-09-09T13:43:50;3.08;;;0.68;;
21239;SDS011;10778;48.962;9.018;2022-09-09T13:46:32;4.10;;;0.75;;
21239;SDS011;10778;48.962;9.018;2022-09-09T13:49:01;3.10;;;0.90;;
21239;SDS011;10778;48.962;9.018;2022-09-09T13:51:45;2.83;;;0.70;;
21239;SDS011;10778;48.962;9.018;2022-09-09T13:54:14;7.07;;;0.93;;
21239;SDS011;10778;48.962;9.018;2022-09-09T13:56:41;2.75;;;0.80;;
21239;SDS011;10778;48.962;9.018;2022-09-09T13:59:13;2.83;;;0.90;;
21239;SDS011;10778;48.962;9.018;2022-09-09T14:01:41;2.78;;;0.70;;
21239;SDS011;10778;48.962;9.018;2022-09-09T14:04:07;2.40;;;0.80;;
21239;SDS011;10778;48.962;9.018;2022-09-09T14:06:34;3.15;;;0.70;;
21239;SDS011;10778;48.962;9.018;2022-09-09T14:09:05;2.55;;;0.70;;
21239;SDS011;10778;48.962;9.018;2022-09-09T14:11:32;4.10;;;0.70;;
21239;SDS011;10778;48.962;9.018;2022-09-09T14:13:58;3.17;;;0.80;;
21239;SDS011;10778;48.962;9.018;2022-09-09T14:16:24;3.63;;;0.90;;
21239;SDS011;10778;48.962;9.018;2022-09-09T14:18:53;1.90;;;0.65;;
21239;SDS011;10778;48.962;9.018;2022-09-09T14:21:21;3.83;;;1.00;;
21239;SDS011;10778;48.962;9.018;2022-09-09T14:23:48;2.10;;;0.70;;
21239;SDS011;10778;48.962;9.018;2022-09-09T14:26:14;2.65;;;0.70;;
21239;SDS011;10778;48.962;9.018;2022-09-09T14:28:40;4.38;;;0.70;;
21239;SDS011;10778;48.962;9.018;2022-09-09T14:31:06;2.80;;;0.82;;
21239;SDS011;10778;48.962;9.018;2022-09-09T14:33:33;2.05;;;0.80;;
21239;SDS011;10778;48.962;9.018;2022-09-09T14:35:59;2.85;;;0.70;;
21239;SDS011;10778;48.962;9.018;2022-09-09T14:38:31;4.28;;;1.30;;
21239;SDS011;10778;48.962;9.018;2022-09-09T14:40:59;2.70;;;0.82;;
21239;SDS011;10778;48.962;9.018;2022-09-09T14:43:28;2.25;;;0.80;;
21239;SDS011;10778;48.962;9.018;2022-09-09T14:46:04;1.98;;;0.77;;
21239;SDS011;10778;48.962;9.018;2022-09-09T14:48:34;2.80;;;0.95;;
21239;SDS011;10778;48.962;9.018;2022-09-09T14:51:20;4.63;;;0.85;;
21239;SDS011;10778;48.962;9.018;2022-09-09T14:53:48;1.75;;;0.75;;
21239;SDS011;10778;48.962;9.018;2022-09-09T14:56:19;3.92;;;0.70;;
21239;SDS011;10778;48.962;9.018;2022-09-09T14:58:48;2.22;;;0.65;;
21239;SDS011;10778;48.962;9.018;2022-09-09T15:01:19;2.70;;;0.60;;
21239;SDS011;10778;48.962;9.018;2022-09-09T15:03:50;1.80;;;0.40;;
21239;SDS011;10778;48.962;9.018;2022-09-09T15:06:18;1.98;;;0.50;;
21239;SDS011;10778;48.962;9.018;2022-09-09T15:08:46;2.97;;;0.57;;
21239;SDS011;10778;48.962;9.018;2022-09-09T15:11:13;1.83;;;0.70;;
21239;SDS011;10778;48.962;9.018;2022-09-09T15:13:41;2.05;;;0.50;;
21239;SDS011;10778;48.962;9.018;2022-09-09T15:16:12;2.15;;;0.43;;
21239;SDS011;10778;48.962;9.018;2022-09-09T15:18:40;2.10;;;0.60;;
21239;SDS011;10778;48.962;9.018;2022-09-09T15:21:11;1.60;;;0.55;;
21239;SDS011;10778;48.962;9.018;2022-09-09T15:23:38;1.92;;;0.52;;
21239;SDS011;10778;48.962;9.018;2022-09-09T15:26:04;3.83;;;0.60;;
21239;SDS011;10778;48.962;9.018;2022-09-09T15:28:34;2.25;;;0.60;;
21239;SDS011;10778;48.962;9.018;2022-09-09T15:31:07;2.88;;;0.70;;
21239;SDS011;10778;48.962;9.018;2022-09-09T15:33:36;1.45;;;0.60;;
21239;SDS011;10778;48.962;9.018;2022-09-09T15:36:16;2.13;;;0.60;;
21239;SDS011;10778;48.962;9.018;2022-09-09T15:38:46;1.60;;;0.70;;
21239;SDS011;10778;48.962;9.018;2022-09-09T15:41:12;2.35;;;0.70;;
21239;SDS011;10778;48.962;9.018;2022-09-09T15:43:42;2.70;;;0.60;;
21239;SDS011;10778;48.962;9.018;2022-09-09T15:46:26;2.17;;;0.70;;
21239;SDS011;10778;48.962;9.018;2022-09-09T15:48:58;3.72;;;0.88;;
21239;SDS011;10778;48.962;9.018;2022-09-09T15:51:28;2.22;;;0.70;;
21239;SDS011;10778;48.962;9.018;2022-09-09T15:53:54;3.45;;;0.80;;
21239;SDS011;10778;48.962;9.018;2022-09-09T15:56:22;3.08;;;0.90;;
21239;SDS011;10778;48.962;9.018;2022-09-09T15:58:49;3.58;;;0.80;;
21239;SDS011;10778;48.962;9.018;2022-09-09T16:01:15;6.93;;;1.40;;
21239;SDS011;10778;48.962;9.018;2022-09-09T16:03:42;6.70;;;1.40;;
21239;SDS011;10778;48.962;9.018;2022-09-09T16:06:11;8.68;;;1.45;;
21239;SDS011;10778;48.962;9.018;2022-09-09T16:08:39;5.18;;;1.15;;
21239;SDS011;10778;48.962;9.018;2022-09-09T16:11:07;4.60;;;1.20;;
21239;SDS011;10778;48.962;9.018;2022-09-09T16:13:40;4.43;;;1.10;;
21239;SDS011;10778;48.962;9.018;2022-09-09T16:16:07;3.45;;;1.02;;
21239;SDS011;10778;48.962;9.018;2022-09-09T16:18:36;3.33;;;0.52;;
21239;SDS011;10778;48.962;9.018;2022-09-09T16:21:04;1.17;;;0.50;;
21239;SDS011;10778;48.962;9.018;2022-09-09T16:23:32;1.85;;;0.40;;
21239;SDS011;10778;48.962;9.018;2022-09-09T16:25:58;1.88;;;0.40;;
21239;SDS011;10778;48.962;9.018;2022-09-09T16:28:24;2.05;;;0.43;;
21239;SDS011;10778;48.962;9.018;2022-09-09T16:30:50;1.35;;;0.50;;
21239;SDS011;10778;48.962;9.018;2022-09-09T16:33:16;1.08;;;0.40;;
21239;SDS011;10778;48.962;9.018;2022-09-09T16:35:43;2.58;;;0.60;;
21239;SDS011;10778;48.962;9.018;2022-09-09T16:38:08;1.83;;;0.60;;
21239;SDS011;10778;48.962;9.018;2022-09-09T16:40:35;4.38;;;0.70;;
21239;SDS011;10778;48.962;9.018;2022-09-09T16:43:07;2.15;;;0.80;;
21239;SDS011;10778;48.962;9.018;2022-09-09T16:45:40;1.13;;;0.57;;
21239;SDS011;10778;48.962;9.018;2022-09-09T16:48:07;1.33;;;0.40;;
21239;SDS011;10778;48.962;9.018;2022-09-09T16:50:33;2.35;;;0.57;;
21239;SDS011;10778;48.962;9.018;2022-09-09T16:52:59;1.88;;;0.65;;
21239;SDS011;10778;48.962;9.018;2022-09-09T16:55:28;0.73;;;0.47;;
21239;SDS011;10778;48.962;9.018;2022-09-09T16:57:54;2.45;;;0.50;;
21239;SDS011;10778;48.962;9.018;2022-09-09T17:00:20;2.05;;;0.40;;
21239;SDS011;10778;48.962;9.018;2022-09-09T17:02:48;2.97;;;0.52;;
21239;SDS011;10778;48.962;9.018;2022-09-09T17:05:14;2.33;;;0.70;;
21239;SDS011;10778;48.962;9.018;2022-09-09T17:07:40;1.60;;;0.65;;
21239;SDS011;10778;48.962;9.018;2022-09-09T17:10:07;1.85;;;0.60;;
21239;SDS011;10778;48.962;9.018;2022-09-09T17:12:33;2.42;;;0.60;;
21239;SDS011;10778;48.962;9.018;2022-09-09T17:15:01;2.45;;;0.45;;
21239;SDS011;10778;48.962;9.018;2022-09-09T17:17:28;2.80;;;0.57;;
21239;SDS011;10778;48.962;9.018;2022-09-09T17:19:54;1.55;;;0.40;;
21239;SDS011;10778;48.962;9.018;2022-09-09T17:22:20;1.05;;;0.70;;